Time;durP1;ratioP1;P1;durP2;ratioP2;P2;SDS_P1;SDS_P2;PMS_P1;PMS_P2;Temp;Humidity;BMP_temperature;BMP_pressure;BME280_temperature;BME280_humidity;BME280_pressure;Samples;Min_cycle;Max_cycle;Signal;HPM_P1;HPM_P2
2023/03/22 00:00:48;;;;;;;16.38;7.10;;;8.50;99.90;;;;;;5014573;28;20230;-83
2023/03/22 00:03:15;;;;;;;11.93;7.80;;;8.40;99.90;;;;;;5015767;28;20222;-83
2023/03/22 00:05:41;;;;;;;12.97;7.87;;;8.50;99.90;;;;;;5014736;28;20606;-81
2023/03/22 00:08:07;;;;;;;15.00;8.23;;;8.50;99.90;;;;;;5015870;28;20226;-82
2023/03/22 00:10:35;;;;;;;16.07;8.37;;;8.50;99.90;;;;;;5015277;28;20179;-82
2023/03/22 00:13:01;;;;;;;15.13;8.93;;;8.50;99.90;;;;;;5031013;28;20179;-83
2023/03/22 00:15:28;;;;;;;12.87;8.90;;;8.50;99.90;;;;;;5015819;28;20237;-82
2023/03/22 00:17:57;;;;;;;13.80;9.10;;;8.50;99.90;;;;;;5015649;28;20247;-82
2023/03/22 00:20:24;;;;;;;14.03;8.83;;;8.50;99.90;;;;;;5014070;28;20187;-81
2023/03/22 00:22:50;;;;;;;16.30;9.17;;;8.50;99.90;;;;;;5015356;28;20582;-82
2023/03/22 00:25:17;;;;;;;13.17;9.73;;;8.50;99.90;;;;;;5014906;28;20179;-82
2023/03/22 00:27:43;;;;;;;13.10;9.63;;;8.50;99.90;;;;;;5015492;28;20179;-82
2023/03/22 00:30:10;;;;;;;15.37;9.30;;;8.50;99.90;;;;;;5015420;28;20531;-82
2023/03/22 00:32:37;;;;;;;14.40;9.83;;;8.50;99.90;;;;;;5015377;28;20174;-82
2023/03/22 00:35:05;;;;;;;12.60;9.10;;;8.50;99.90;;;;;;5011645;28;20191;-81
2023/03/22 00:37:33;;;;;;;16.27;9.32;;;8.50;99.90;;;;;;4995285;28;20168;-82
2023/03/22 00:40:03;;;;;;;13.40;9.27;;;8.50;99.90;;;;;;5010186;28;20322;-82
2023/03/22 00:42:29;;;;;;;19.40;9.77;;;8.50;99.90;;;;;;5010674;28;20188;-82
2023/03/22 00:44:55;;;;;;;14.37;10.10;;;8.40;99.90;;;;;;4995502;28;20183;-83
2023/03/22 00:47:22;;;;;;;14.97;9.97;;;8.40;99.90;;;;;;5010318;28;20586;-82
2023/03/22 00:49:47;;;;;;;13.90;9.57;;;8.40;99.90;;;;;;4995030;28;20178;-82
2023/03/22 00:52:13;;;;;;;17.70;10.90;;;8.40;99.90;;;;;;5010379;28;20184;-82
2023/03/22 00:54:39;;;;;;;14.60;10.07;;;8.40;99.90;;;;;;4995217;28;20212;-82
2023/03/22 00:57:04;;;;;;;14.90;9.90;;;8.40;99.90;;;;;;4995278;28;20172;-81
2023/03/22 00:59:30;;;;;;;15.13;9.83;;;8.40;99.90;;;;;;4995065;28;20290;-82
2023/03/22 01:01:57;;;;;;;18.13;11.00;;;8.40;99.90;;;;;;4995073;28;20234;-82
2023/03/22 01:04:24;;;;;;;16.53;11.03;;;8.40;99.90;;;;;;4995140;28;20183;-83
2023/03/22 01:06:58;;;;;;;19.63;10.67;;;8.40;99.90;;;;;;5012694;28;20182;-82
2023/03/22 01:09:27;;;;;;;19.10;10.97;;;8.40;99.90;;;;;;5014559;28;20218;-83
2023/03/22 01:11:57;;;;;;;15.07;11.07;;;8.40;99.90;;;;;;5013239;28;20191;-82
2023/03/22 01:14:24;;;;;;;18.43;11.97;;;8.40;99.90;;;;;;5013169;28;20199;-82
2023/03/22 01:16:53;;;;;;;15.50;10.93;;;8.40;99.90;;;;;;5014552;28;20182;-82
2023/03/22 01:19:20;;;;;;;15.23;11.07;;;8.40;99.90;;;;;;5013079;28;20215;-82
2023/03/22 01:21:45;;;;;;;16.87;11.37;;;8.40;99.90;;;;;;5012399;28;20527;-85
2023/03/22 01:24:11;;;;;;;16.70;10.60;;;8.40;99.90;;;;;;5013259;28;20187;-82
2023/03/22 01:26:37;;;;;;;15.43;11.47;;;8.40;99.90;;;;;;5014391;28;20206;-82
2023/03/22 01:29:04;;;;;;;15.30;10.97;;;8.40;99.90;;;;;;5014304;28;20190;-82
2023/03/22 01:31:29;;;;;;;20.67;11.60;;;8.40;99.90;;;;;;5014256;28;20168;-82
2023/03/22 01:33:55;;;;;;;17.57;11.40;;;8.40;99.90;;;;;;5013103;28;20195;-82
2023/03/22 01:36:21;;;;;;;18.60;11.67;;;8.30;99.90;;;;;;4999868;28;20183;-83
2023/03/22 01:38:47;;;;;;;15.03;11.43;;;8.40;99.90;;;;;;4994711;28;20286;-82
2023/03/22 01:41:12;;;;;;;20.33;11.63;;;8.40;99.90;;;;;;4994431;28;20172;-82
2023/03/22 01:43:38;;;;;;;20.43;12.50;;;8.30;99.90;;;;;;4994558;28;20227;-82
2023/03/22 01:46:04;;;;;;;18.87;12.13;;;8.40;99.90;;;;;;4994604;28;20196;-83
2023/03/22 01:48:44;;;;;;;20.70;13.13;;;8.40;99.90;;;;;;4993331;28;20216;-82
2023/03/22 01:51:17;;;;;;;18.57;12.27;;;8.40;99.90;;;;;;4994262;28;20251;-83
2023/03/22 01:53:49;;;;;;;19.07;12.60;;;8.40;99.90;;;;;;4994310;28;20168;-81
2023/03/22 01:56:18;;;;;;;19.43;12.53;;;8.40;99.90;;;;;;4993031;28;20294;-82
2023/03/22 01:58:45;;;;;;;18.60;12.23;;;8.50;99.90;;;;;;4994322;28;20218;-83
2023/03/22 02:01:11;;;;;;;18.30;11.90;;;8.50;99.90;;;;;;4992977;28;20258;-82
2023/03/22 02:03:48;;;;;;;18.50;12.93;;;8.50;99.90;;;;;;4993061;28;20610;-82
2023/03/22 02:06:15;;;;;;;22.20;11.80;;;8.40;99.90;;;;;;5007140;28;20183;-82
2023/03/22 02:08:41;;;;;;;19.13;12.20;;;8.40;99.90;;;;;;5013784;28;20233;-82
2023/03/22 02:11:14;;;;;;;15.67;11.60;;;8.40;99.90;;;;;;5012513;28;20171;-82
2023/03/22 02:14:04;;;;;;;15.57;11.73;;;8.40;99.90;;;;;;5012620;28;20245;-82
2023/03/22 02:16:59;;;;;;;21.27;11.77;;;8.40;99.90;;;;;;4996218;28;20214;-82
2023/03/22 02:19:44;;;;;;;17.42;11.48;;;8.40;99.90;;;;;;5008092;28;20309;-82
2023/03/22 02:22:38;;;;;;;19.67;12.40;;;8.40;99.90;;;;;;5013516;28;20167;-82
2023/03/22 02:25:12;;;;;;;18.40;11.33;;;8.30;99.90;;;;;;4996131;28;20194;-81
2023/03/22 02:28:09;;;;;;;16.37;12.17;;;8.40;99.90;;;;;;5013848;28;20248;-82
2023/03/22 02:30:53;;;;;;;19.07;11.80;;;8.30;99.90;;;;;;4996113;28;20614;-82
2023/03/22 02:33:39;;;;;;;17.40;11.73;;;8.30;99.90;;;;;;5014502;28;20175;-81
2023/03/22 02:36:29;;;;;;;19.70;11.57;;;8.30;99.90;;;;;;4994459;28;20195;-81
2023/03/22 02:39:05;;;;;;;16.80;11.83;;;8.30;99.90;;;;;;4996676;28;20207;-81
2023/03/22 02:41:55;;;;;;;19.02;12.70;;;8.40;99.90;;;;;;4997817;28;20191;-82
2023/03/22 02:44:43;;;;;;;18.10;12.50;;;8.40;99.90;;;;;;4996668;28;20180;-81
2023/03/22 02:47:23;;;;;;;17.35;12.05;;;8.40;99.90;;;;;;4997834;28;20637;-81
2023/03/22 02:50:00;;;;;;;17.50;12.00;;;8.40;99.90;;;;;;4997707;28;20167;-81
2023/03/22 02:52:50;;;;;;;19.17;12.80;;;8.50;99.90;;;;;;4997487;28;20218;-82
2023/03/22 02:55:45;;;;;;;18.10;11.90;;;8.50;99.90;;;;;;4997449;28;20224;-82
2023/03/22 02:58:22;;;;;;;19.37;12.30;;;8.50;99.90;;;;;;4997672;28;20203;-82
2023/03/22 03:00:52;;;;;;;16.87;11.73;;;8.50;99.90;;;;;;4997422;28;20195;-83
2023/03/22 03:03:19;;;;;;;19.03;12.13;;;8.50;99.90;;;;;;4997363;28;20202;-81
2023/03/22 03:05:50;;;;;;;17.67;12.07;;;8.50;99.90;;;;;;5006193;28;20175;-82
2023/03/22 03:08:18;;;;;;;18.67;11.80;;;8.50;99.90;;;;;;5017172;28;20171;-82
2023/03/22 03:10:44;;;;;;;21.27;13.50;;;8.50;99.90;;;;;;5016890;28;20559;-81
2023/03/22 03:13:15;;;;;;;20.95;12.18;;;8.50;99.90;;;;;;5016803;28;20179;-82
2023/03/22 03:15:42;;;;;;;17.03;11.63;;;8.60;99.90;;;;;;5016851;28;20606;-81
2023/03/22 03:18:24;;;;;;;17.92;12.00;;;8.60;99.90;;;;;;5015573;28;20941;-83
2023/03/22 03:21:06;;;;;;;18.52;11.93;;;8.60;99.90;;;;;;5016526;28;20171;-82
2023/03/22 03:24:07;;;;;;;16.40;11.88;;;8.60;99.90;;;;;;5016588;28;20152;-82
2023/03/22 03:26:49;;;;;;;22.23;11.83;;;8.70;99.90;;;;;;5012419;28;20222;-82
2023/03/22 03:29:25;;;;;;;19.63;12.30;;;8.70;99.90;;;;;;5016688;28;20483;-82
2023/03/22 03:32:14;;;;;;;19.35;12.88;;;8.60;99.90;;;;;;5016364;28;20159;-81
2023/03/22 03:35:00;;;;;;;21.25;11.98;;;8.60;99.90;;;;;;5016334;28;20175;-82
2023/03/22 03:37:35;;;;;;;20.67;11.85;;;8.60;99.90;;;;;;4995241;28;20176;-82
2023/03/22 03:40:11;;;;;;;18.90;12.95;;;8.60;99.90;;;;;;4996712;28;20253;-82
2023/03/22 03:42:45;;;;;;;22.90;12.83;;;8.70;99.90;;;;;;4995515;28;20172;-82
2023/03/22 03:45:13;;;;;;;19.73;12.65;;;8.80;99.90;;;;;;4994871;28;20270;-83
2023/03/22 03:47:39;;;;;;;23.13;13.23;;;8.80;99.90;;;;;;4996785;28;20638;-82
2023/03/22 03:50:06;;;;;;;21.85;13.27;;;8.70;99.90;;;;;;4996577;28;20176;-83
2023/03/22 03:52:31;;;;;;;19.88;12.82;;;8.70;99.90;;;;;;4996294;28;20180;-82
2023/03/22 03:54:57;;;;;;;19.45;12.73;;;8.70;99.90;;;;;;4996337;28;20222;-83
2023/03/22 03:57:23;;;;;;;19.40;12.73;;;8.70;99.90;;;;;;4996597;28;20669;-82
2023/03/22 03:59:49;;;;;;;20.63;13.17;;;8.80;99.90;;;;;;4994835;28;20223;-82
2023/03/22 04:02:15;;;;;;;21.45;12.90;;;8.80;99.90;;;;;;4995157;28;20169;-83
2023/03/22 04:04:41;;;;;;;19.90;12.90;;;8.80;99.90;;;;;;4995704;28;20184;-83
2023/03/22 04:07:07;;;;;;;22.50;13.32;;;8.80;99.90;;;;;;5015721;28;20218;-84
2023/03/22 04:09:35;;;;;;;23.33;13.27;;;8.80;99.90;;;;;;5014522;28;20202;-83
2023/03/22 04:12:01;;;;;;;20.60;12.90;;;8.80;99.90;;;;;;5014450;28;20167;-82
2023/03/22 04:14:27;;;;;;;20.00;12.80;;;8.80;99.90;;;;;;5015806;28;20480;-82
2023/03/22 04:16:53;;;;;;;18.67;12.63;;;8.80;99.90;;;;;;5015886;28;20183;-82
2023/03/22 04:19:20;;;;;;;19.83;12.40;;;8.80;99.90;;;;;;5015668;28;20733;-83
2023/03/22 04:21:46;;;;;;;21.90;12.57;;;8.70;99.90;;;;;;5013984;28;20632;-83
2023/03/22 04:24:12;;;;;;;19.13;12.27;;;8.80;99.90;;;;;;5015632;28;20179;-82
2023/03/22 04:26:38;;;;;;;20.00;12.80;;;8.70;99.90;;;;;;5015552;28;20175;-85
2023/03/22 04:29:05;;;;;;;21.27;12.87;;;8.70;99.90;;;;;;5015573;28;20189;-82
2023/03/22 04:31:32;;;;;;;17.40;12.53;;;8.70;99.90;;;;;;5014179;28;20298;-82
2023/03/22 04:33:59;;;;;;;21.13;12.07;;;8.80;99.90;;;;;;5015663;28;20214;-82
2023/03/22 04:36:29;;;;;;;16.58;11.38;;;8.80;99.90;;;;;;5000063;28;20188;-82
2023/03/22 04:38:56;;;;;;;22.13;12.60;;;8.80;99.90;;;;;;5008353;28;20645;-82
2023/03/22 04:41:21;;;;;;;18.17;11.80;;;8.80;99.90;;;;;;5013924;28;20210;-81
2023/03/22 04:43:49;;;;;;;20.00;12.27;;;8.80;99.90;;;;;;5015408;28;20210;-82
2023/03/22 04:46:16;;;;;;;18.08;12.15;;;8.80;99.90;;;;;;5015156;28;20174;-82
2023/03/22 04:48:42;;;;;;;19.40;11.43;;;8.80;99.90;;;;;;5015111;28;20183;-82
2023/03/22 04:51:10;;;;;;;21.00;12.17;;;8.80;99.90;;;;;;5013515;28;20171;-82
2023/03/22 04:53:37;;;;;;;19.00;11.90;;;8.80;99.90;;;;;;5013657;28;20245;-82
2023/03/22 04:56:08;;;;;;;19.10;12.73;;;8.80;99.90;;;;;;5014635;28;20314;-82
2023/03/22 04:58:37;;;;;;;18.95;12.07;;;8.80;99.90;;;;;;5013220;28;20269;-82
2023/03/22 05:01:03;;;;;;;20.05;12.27;;;8.80;99.90;;;;;;5013663;28;20179;-82
2023/03/22 05:03:28;;;;;;;18.77;12.15;;;8.80;99.90;;;;;;4999511;28;20188;-82
2023/03/22 05:05:56;;;;;;;22.85;12.05;;;8.70;99.90;;;;;;5005261;28;20634;-81
2023/03/22 05:08:23;;;;;;;17.67;11.52;;;8.70;99.90;;;;;;5013553;28;20686;-82
2023/03/22 05:10:51;;;;;;;18.27;11.53;;;8.70;99.90;;;;;;5014663;28;20526;-83
2023/03/22 05:13:20;;;;;;;22.35;11.55;;;8.70;99.90;;;;;;5013514;28;20290;-83
2023/03/22 05:15:47;;;;;;;21.52;12.00;;;8.70;99.90;;;;;;5013395;28;20563;-82
2023/03/22 05:18:14;;;;;;;17.23;12.43;;;8.70;99.90;;;;;;5014578;28;20652;-83
2023/03/22 05:20:41;;;;;;;21.63;12.18;;;8.80;99.90;;;;;;5013016;28;20179;-82
2023/03/22 05:23:08;;;;;;;18.27;11.73;;;8.80;99.90;;;;;;5014447;28;20507;-83
2023/03/22 05:25:35;;;;;;;18.90;12.00;;;8.80;99.90;;;;;;5014783;28;20491;-82
2023/03/22 05:28:02;;;;;;;19.20;12.25;;;8.80;99.90;;;;;;5014723;28;20175;-82
2023/03/22 05:30:29;;;;;;;23.40;12.57;;;8.80;99.90;;;;;;5013013;28;20181;-83
2023/03/22 05:33:03;;;;;;;16.87;11.83;;;8.90;99.90;;;;;;5013182;28;20610;-83
2023/03/22 05:35:36;;;;;;;17.15;12.48;;;9.00;99.90;;;;;;5013072;28;20201;-81
2023/03/22 05:38:02;;;;;;;18.50;12.03;;;8.90;99.90;;;;;;5012784;28;20179;-83
2023/03/22 05:40:28;;;;;;;17.20;11.77;;;8.90;99.90;;;;;;5013936;28;20186;-84
2023/03/22 05:42:54;;;;;;;18.05;12.57;;;8.90;99.90;;;;;;5014308;28;20172;-83
2023/03/22 05:45:20;;;;;;;19.42;12.55;;;9.00;99.90;;;;;;5013942;28;20210;-82
2023/03/22 05:47:47;;;;;;;18.13;12.20;;;9.00;99.90;;;;;;5014149;28;20176;-82
2023/03/22 05:50:16;;;;;;;23.63;12.93;;;9.00;99.90;;;;;;5012827;28;20182;-83
2023/03/22 05:52:43;;;;;;;21.98;13.43;;;9.00;99.90;;;;;;5013851;28;20511;-83
2023/03/22 05:55:11;;;;;;;18.63;13.00;;;9.00;99.90;;;;;;5013858;28;20235;-82
2023/03/22 05:57:38;;;;;;;17.33;12.35;;;9.00;99.90;;;;;;5013403;28;20184;-82
2023/03/22 06:00:13;;;;;;;24.40;13.35;;;8.90;99.90;;;;;;4979877;28;20237;-81
2023/03/22 06:02:43;;;;;;;19.50;12.48;;;9.00;99.90;;;;;;5006730;28;20181;-83
2023/03/22 06:05:10;;;;;;;21.08;13.35;;;9.10;99.90;;;;;;4997749;28;20192;-83
2023/03/22 06:07:36;;;;;;;18.70;13.00;;;9.10;99.90;;;;;;4991306;28;20240;-83
2023/03/22 06:10:03;;;;;;;20.30;12.80;;;9.10;99.90;;;;;;4992271;28;20183;-83
2023/03/22 06:12:29;;;;;;;20.25;12.57;;;9.10;99.90;;;;;;4992499;28;20172;-83
2023/03/22 06:14:55;;;;;;;20.98;12.90;;;9.20;99.90;;;;;;4991564;28;20180;-83
2023/03/22 06:17:21;;;;;;;22.13;13.32;;;9.20;99.90;;;;;;4992803;28;20191;-83
2023/03/22 06:19:47;;;;;;;17.92;11.70;;;9.20;99.90;;;;;;4991322;28;20207;-83
2023/03/22 06:22:12;;;;;;;16.23;12.00;;;9.20;99.90;;;;;;4993221;28;20255;-82
2023/03/22 06:24:39;;;;;;;17.85;12.48;;;9.20;99.90;;;;;;4993868;28;20251;-82
2023/03/22 06:27:05;;;;;;;18.38;12.07;;;9.20;99.90;;;;;;4994104;28;20180;-82
2023/03/22 06:29:32;;;;;;;23.13;12.18;;;9.20;99.90;;;;;;5013555;28;20179;-81
2023/03/22 06:31:58;;;;;;;20.35;12.48;;;9.20;99.90;;;;;;4996098;28;20198;-83
2023/03/22 06:34:25;;;;;;;18.83;12.07;;;9.30;99.90;;;;;;4996176;28;20672;-82
2023/03/22 06:36:52;;;;;;;19.13;11.68;;;9.30;99.90;;;;;;4995810;28;20187;-83
2023/03/22 06:39:18;;;;;;;16.10;11.18;;;9.40;99.90;;;;;;5013422;28;20202;-82
2023/03/22 06:41:43;;;;;;;15.98;11.45;;;9.50;99.90;;;;;;5013470;28;20283;-83
2023/03/22 06:44:09;;;;;;;17.88;12.65;;;9.50;99.90;;;;;;5013647;28;20203;-84
2023/03/22 06:46:35;;;;;;;16.13;11.18;;;9.60;99.90;;;;;;5013691;28;20167;-82
2023/03/22 06:49:00;;;;;;;18.92;11.45;;;9.60;99.90;;;;;;5012554;28;20673;-82
2023/03/22 06:51:26;;;;;;;21.15;12.35;;;9.70;99.90;;;;;;4995835;28;20195;-84
2023/03/22 06:53:52;;;;;;;18.13;11.65;;;9.70;99.90;;;;;;5013542;28;20178;-83
2023/03/22 06:56:17;;;;;;;18.40;11.70;;;9.70;99.90;;;;;;5013371;28;20231;-83
2023/03/22 06:58:43;;;;;;;19.67;11.48;;;9.80;99.90;;;;;;5013459;28;20226;-83
2023/03/22 07:01:09;;;;;;;18.15;11.43;;;9.80;99.90;;;;;;5013233;28;20277;-82
2023/03/22 07:03:34;;;;;;;16.17;11.40;;;9.80;99.90;;;;;;5013452;28;20171;-82
2023/03/22 07:06:05;;;;;;;15.30;11.45;;;9.80;99.90;;;;;;5013251;28;20246;-82
2023/03/22 07:08:30;;;;;;;18.02;11.65;;;9.80;99.90;;;;;;4995770;28;20176;-83
2023/03/22 07:10:56;;;;;;;16.88;11.27;;;9.80;99.90;;;;;;5013123;28;20644;-82
2023/03/22 07:13:22;;;;;;;17.67;11.40;;;9.80;99.90;;;;;;4995757;28;20179;-82
2023/03/22 07:15:47;;;;;;;19.13;12.07;;;9.90;99.90;;;;;;5013189;28;20171;-81
2023/03/22 07:18:13;;;;;;;16.10;12.45;;;9.90;99.90;;;;;;5013205;28;20227;-82
2023/03/22 07:20:40;;;;;;;19.52;11.57;;;9.90;99.90;;;;;;5014497;28;20175;-83
2023/03/22 07:23:07;;;;;;;19.23;11.50;;;10.00;99.90;;;;;;5016506;28;20565;-81
2023/03/22 07:25:33;;;;;;;17.63;11.30;;;10.10;99.90;;;;;;4998869;28;20180;-83
2023/03/22 07:27:59;;;;;;;18.20;11.68;;;10.20;99.90;;;;;;4999183;28;20202;-83
2023/03/22 07:30:25;;;;;;;17.25;11.43;;;10.30;99.90;;;;;;5016728;28;20171;-83
2023/03/22 07:32:51;;;;;;;16.20;10.65;;;10.40;99.90;;;;;;5016887;28;20221;-84
2023/03/22 07:35:17;;;;;;;17.77;11.85;;;10.50;99.90;;;;;;4998954;28;20510;-83
2023/03/22 07:37:44;;;;;;;18.17;11.57;;;10.60;99.90;;;;;;5016457;28;20625;-82
2023/03/22 07:40:11;;;;;;;17.85;11.57;;;10.60;99.90;;;;;;4998971;28;20269;-82
2023/03/22 07:42:36;;;;;;;19.65;12.15;;;10.60;99.90;;;;;;4999133;28;20176;-83
2023/03/22 07:45:03;;;;;;;18.77;12.57;;;10.70;99.90;;;;;;5016786;28;20182;-86
2023/03/22 07:47:28;;;;;;;19.35;11.52;;;10.70;99.90;;;;;;5016421;28;20172;-83
2023/03/22 07:49:54;;;;;;;17.63;11.43;;;10.70;99.90;;;;;;5013126;28;20179;-83
2023/03/22 07:52:20;;;;;;;21.00;12.38;;;10.80;99.90;;;;;;5014377;28;20175;-81
2023/03/22 07:54:45;;;;;;;16.08;11.75;;;10.90;99.90;;;;;;5014565;28;20190;-83
2023/03/22 07:57:11;;;;;;;18.88;11.07;;;11.00;99.90;;;;;;5014151;28;20187;-83
2023/03/22 07:59:37;;;;;;;15.10;11.30;;;11.00;99.90;;;;;;4998496;28;20226;-85
2023/03/22 08:02:03;;;;;;;18.65;11.50;;;11.10;99.90;;;;;;5016438;28;20178;-83
2023/03/22 08:04:29;;;;;;;19.80;11.60;;;11.20;99.90;;;;;;5016120;28;20539;-83
2023/03/22 08:06:57;;;;;;;17.00;11.25;;;11.30;99.90;;;;;;4998050;28;20226;-84
2023/03/22 08:09:24;;;;;;;15.35;10.45;;;11.30;99.90;;;;;;4998456;28;20237;-88
2023/03/22 08:11:50;;;;;;;17.80;11.25;;;11.40;99.90;;;;;;4998440;28;20238;-82
2023/03/22 08:14:16;;;;;;;16.70;11.40;;;11.50;99.90;;;;;;4998556;28;20562;-89
2023/03/22 08:16:43;;;;;;;16.48;11.43;;;11.50;99.90;;;;;;4998494;28;20175;-85
2023/03/22 08:19:09;;;;;;;17.55;10.40;;;11.50;99.90;;;;;;5016111;28;20210;-84
2023/03/22 08:21:35;;;;;;;16.27;10.13;;;11.50;99.90;;;;;;4998210;28;20175;-84
2023/03/22 08:24:02;;;;;;;14.63;10.10;;;11.50;99.90;;;;;;5016346;28;20548;-82
2023/03/22 08:26:27;;;;;;;17.52;9.95;;;11.50;99.90;;;;;;5016202;28;20187;-85
2023/03/22 08:28:53;;;;;;;12.57;9.50;;;11.50;99.90;;;;;;5015879;28;20181;-89
2023/03/22 08:31:21;;;;;;;17.08;10.60;;;11.50;99.90;;;;;;4998293;28;20190;-84
2023/03/22 08:33:48;;;;;;;16.55;9.68;;;11.60;99.90;;;;;;4999086;28;20225;-94
2023/03/22 08:36:19;;;;;;;13.80;9.82;;;11.70;99.90;;;;;;5015660;28;20262;-83
2023/03/22 08:38:44;;;;;;;13.77;9.60;;;11.80;99.90;;;;;;4998573;28;20306;-85
2023/03/22 08:41:12;;;;;;;13.52;9.80;;;11.90;99.90;;;;;;4998550;28;20625;-84
2023/03/22 08:43:37;;;;;;;17.10;9.27;;;12.00;99.90;;;;;;4998355;28;20176;-87
2023/03/22 08:46:03;;;;;;;16.77;9.00;;;12.10;99.90;;;;;;5015600;28;20183;-90
2023/03/22 08:48:30;;;;;;;13.80;8.90;;;12.20;99.90;;;;;;5015321;28;20184;-91
2023/03/22 08:51:05;;;;;;;11.65;8.90;;;12.30;99.90;;;;;;4997783;28;20179;-86
2023/03/22 08:53:31;;;;;;;15.80;8.90;;;12.40;99.90;;;;;;4998055;28;20525;-88
2023/03/22 08:56:01;;;;;;;13.82;9.07;;;12.60;99.90;;;;;;5005711;28;20277;-89
2023/03/22 08:58:27;;;;;;;12.25;8.52;;;12.70;99.90;;;;;;5014579;28;20638;-86
2023/03/22 09:00:53;;;;;;;12.50;8.70;;;12.70;99.90;;;;;;5015435;28;20175;-89
2023/03/22 09:03:18;;;;;;;13.77;8.55;;;12.70;99.90;;;;;;5015398;28;20210;-86
2023/03/22 09:05:44;;;;;;;13.95;8.48;;;12.70;99.90;;;;;;5015585;28;20190;-91
2023/03/22 09:08:10;;;;;;;15.73;8.85;;;12.80;99.90;;;;;;5015726;28;20176;-89
2023/03/22 09:10:38;;;;;;;15.57;8.23;;;12.70;99.90;;;;;;5030612;28;20175;-86
2023/03/22 09:13:04;;;;;;;12.27;8.48;;;12.70;99.90;;;;;;5015242;28;20179;-87
2023/03/22 09:15:30;;;;;;;14.10;7.53;;;12.50;99.90;;;;;;5015640;28;20155;-89
2023/03/22 09:17:56;;;;;;;11.00;7.47;;;12.50;99.90;;;;;;5015442;28;20171;-90
2023/03/22 09:20:24;;;;;;;8.93;6.60;;;12.40;99.90;;;;;;5015336;28;20194;-89
2023/03/22 09:22:53;;;;;;;13.43;7.50;;;12.50;99.90;;;;;;5014297;28;20250;-93
2023/03/22 09:25:20;;;;;;;14.23;7.30;;;12.50;99.90;;;;;;5014638;28;20262;-86
2023/03/22 09:27:45;;;;;;;12.95;6.85;;;12.60;99.90;;;;;;5015600;28;20163;-86
2023/03/22 09:30:11;;;;;;;10.43;7.03;;;12.60;99.90;;;;;;5013863;28;20614;-85
2023/03/22 09:32:37;;;;;;;11.27;6.57;;;12.70;99.90;;;;;;5013856;28;20496;-84
2023/03/22 09:35:03;;;;;;;12.13;6.43;;;12.80;99.90;;;;;;5015369;28;20250;-87
2023/03/22 09:37:29;;;;;;;9.43;6.10;;;12.80;99.90;;;;;;5014066;28;20179;-89
2023/03/22 09:39:56;;;;;;;10.25;5.68;;;12.70;99.90;;;;;;5014864;28;20203;-90
2023/03/22 09:42:41;;;;;;;8.18;5.95;;;12.70;99.90;;;;;;5030460;28;20265;-88
2023/03/22 09:45:14;;;;;;;10.95;6.38;;;12.70;99.90;;;;;;5014156;28;20265;-92
2023/03/22 09:47:45;;;;;;;12.50;6.63;;;12.70;99.90;;;;;;5030620;28;20258;-88
2023/03/22 09:50:23;;;;;;;10.48;5.50;;;12.70;99.90;;;;;;5014030;28;20519;-85
2023/03/22 09:52:49;;;;;;;10.40;5.82;;;12.70;99.90;;;;;;5014990;28;20167;-89
2023/03/22 09:55:20;;;;;;;11.52;5.63;;;12.60;99.90;;;;;;5008566;28;20285;-89
2023/03/22 09:57:55;;;;;;;12.57;6.80;;;12.60;99.90;;;;;;4994393;28;20495;-91
2023/03/22 10:00:37;;;;;;;10.70;6.05;;;12.60;99.90;;;;;;4995183;28;20226;-86
2023/03/22 10:03:29;;;;;;;9.27;6.22;;;12.70;99.90;;;;;;4995470;28;20667;-90
2023/03/22 10:06:14;;;;;;;11.82;6.32;;;12.80;99.90;;;;;;4994149;28;20649;-86
2023/03/22 10:09:08;;;;;;;12.02;6.07;;;12.90;99.90;;;;;;4995095;28;20179;-88
2023/03/22 10:11:43;;;;;;;11.68;6.43;;;13.10;99.90;;;;;;4993563;28;20271;-91
2023/03/22 10:14:33;;;;;;;14.70;6.38;;;13.20;99.90;;;;;;4993969;28;20229;-87
2023/03/22 10:17:04;;;;;;;15.40;6.90;;;13.20;99.90;;;;;;4993734;28;20171;-86
2023/03/22 10:20:03;;;;;;;9.73;6.32;;;13.30;99.90;;;;;;4977463;28;20537;-89
2023/03/22 10:22:34;;;;;;;9.80;6.25;;;13.30;99.90;;;;;;4995264;28;20156;-85
2023/03/22 10:25:01;;;;;;;10.48;6.68;;;13.20;99.90;;;;;;4997717;28;20729;-90
2023/03/22 10:27:29;;;;;;;10.00;6.28;;;13.30;99.90;;;;;;5014408;28;20615;-87
2023/03/22 10:30:01;;;;;;;9.45;6.10;;;13.50;99.90;;;;;;5014198;28;20167;-85
2023/03/22 10:32:45;;;;;;;10.10;6.03;;;13.40;99.90;;;;;;5014417;28;20194;-90
2023/03/22 10:35:14;;;;;;;8.45;5.80;;;13.40;99.90;;;;;;4997163;28;20226;-90
2023/03/22 10:37:43;;;;;;;14.02;5.57;;;13.20;99.90;;;;;;5014502;28;20293;-87
2023/03/22 10:40:16;;;;;;;10.05;5.80;;;13.30;99.90;;;;;;4996483;28;20268;-87
2023/03/22 10:42:53;;;;;;;10.88;5.25;;;13.50;99.90;;;;;;5014243;28;20603;-90
2023/03/22 10:45:20;;;;;;;9.90;5.82;;;13.70;99.90;;;;;;5014763;28;20330;-86
2023/03/22 10:48:10;;;;;;;6.95;5.28;;;13.70;99.90;;;;;;4996862;28;20266;-86
2023/03/22 10:50:38;;;;;;;8.10;5.35;;;13.60;99.90;;;;;;5014224;28;20170;-87
2023/03/22 10:53:22;;;;;;;7.40;4.50;;;13.30;99.90;;;;;;5014212;28;20176;-89
2023/03/22 10:55:48;;;;;;;11.30;5.05;;;13.40;99.90;;;;;;5005886;28;20243;-86
2023/03/22 10:58:19;;;;;;;6.78;4.32;;;13.50;99.90;;;;;;4998471;28;20645;-88
2023/03/22 11:00:49;;;;;;;7.78;4.00;;;13.50;99.90;;;;;;4998587;28;20170;-86
2023/03/22 11:03:40;;;;;;;8.35;3.90;;;13.70;99.90;;;;;;4998181;28;20183;-89
2023/03/22 11:06:12;;;;;;;8.32;4.45;;;13.70;99.90;;;;;;4981238;28;20214;-88
2023/03/22 11:08:50;;;;;;;6.88;3.47;;;13.70;99.90;;;;;;4998648;28;20175;-86
2023/03/22 11:11:25;;;;;;;10.82;4.28;;;13.60;99.90;;;;;;4997114;28;20512;-86
2023/03/22 11:14:14;;;;;;;5.82;4.15;;;13.80;99.90;;;;;;4997309;28;20172;-92
2023/03/22 11:17:00;;;;;;;6.68;3.83;;;14.10;99.90;;;;;;4998561;28;20167;-91
2023/03/22 11:20:00;;;;;;;6.38;3.58;;;14.10;99.90;;;;;;4980549;28;20203;-90
2023/03/22 11:22:39;;;;;;;6.75;3.90;;;14.00;99.90;;;;;;4978283;28;20180;-84
2023/03/22 11:25:15;;;;;;;7.60;3.90;;;14.10;99.90;;;;;;4997716;28;20187;-87
2023/03/22 11:28:04;;;;;;;5.85;3.60;;;14.20;99.90;;;;;;4997893;28;20187;-94
2023/03/22 11:30:31;;;;;;;5.60;3.42;;;14.50;99.90;;;;;;4997040;28;20172;-89
2023/03/22 11:33:20;;;;;;;7.75;3.67;;;14.60;99.90;;;;;;4998000;28;20172;-87
2023/03/22 11:35:52;;;;;;;7.03;3.67;;;14.50;99.90;;;;;;4997939;28;20303;-92
2023/03/22 11:38:39;;;;;;;7.22;4.38;;;14.80;99.90;;;;;;4997593;28;20188;-84
2023/03/22 11:41:20;;;;;;;7.40;3.90;;;14.90;99.90;;;;;;4997448;28;20172;-86
2023/03/22 11:43:53;;;;;;;6.15;3.67;;;14.90;99.90;;;;;;4997961;28;20251;-88
2023/03/22 11:46:19;;;;;;;5.43;3.60;;;15.00;99.90;;;;;;4996033;28;20168;-90
2023/03/22 11:48:47;;;;;;;6.32;3.40;;;15.00;99.90;;;;;;4997812;28;20310;-85
2023/03/22 11:51:24;;;;;;;6.88;3.90;;;14.80;99.90;;;;;;4997614;28;20176;-88
2023/03/22 11:53:57;;;;;;;4.78;3.63;;;14.80;99.90;;;;;;4997226;28;20183;-86
2023/03/22 11:56:28;;;;;;;6.38;3.63;;;14.80;99.90;;;;;;5011831;28;20223;-92
2023/03/22 11:59:29;;;;;;;7.35;3.80;;;14.90;99.90;;;;;;5016465;28;20202;-85
2023/03/22 12:02:15;;;;;;;8.98;3.70;;;15.10;99.90;;;;;;5016935;28;20167;-85
2023/03/22 12:04:48;;;;;;;8.32;3.50;;;15.00;99.90;;;;;;5016953;28;20689;-92
2023/03/22 12:07:23;;;;;;;5.25;3.25;;;15.10;99.90;;;;;;5016533;28;20178;-90
2023/03/22 12:09:57;;;;;;;4.78;3.45;;;14.90;99.90;;;;;;4999665;28;20170;-91
2023/03/22 12:12:28;;;;;;;6.03;3.22;;;15.10;99.90;;;;;;4999341;28;20556;-85
2023/03/22 12:15:01;;;;;;;6.97;3.25;;;15.00;99.90;;;;;;4998848;28;20183;-84
2023/03/22 12:17:41;;;;;;;10.80;3.28;;;15.10;99.90;;;;;;5017179;28;20250;-86
2023/03/22 12:20:35;;;;;;;7.70;2.92;;;15.10;99.90;;;;;;5016227;28;20214;-90
2023/03/22 12:23:01;;;;;;;3.85;2.60;;;15.00;99.90;;;;;;4996911;28;20274;-86
2023/03/22 12:25:34;;;;;;;5.15;2.67;;;15.00;99.90;;;;;;4999160;28;20206;-91
2023/03/22 12:28:10;;;;;;;6.53;2.80;;;15.00;99.90;;;;;;5016676;28;20217;-86
2023/03/22 12:30:49;;;;;;;7.53;3.08;;;14.90;99.90;;;;;;4999186;28;20175;-93
2023/03/22 12:33:23;;;;;;;5.28;2.70;;;14.80;99.90;;;;;;5016756;28;20167;-87
2023/03/22 12:35:54;;;;;;;5.38;2.63;;;14.80;99.90;;;;;;4999239;28;20175;-89
2023/03/22 12:38:59;;;;;;;4.15;2.70;;;14.80;99.90;;;;;;4999493;28;20226;-92
2023/03/22 12:41:40;;;;;;;3.10;2.20;;;14.80;99.90;;;;;;4997887;28;20186;-92
2023/03/22 12:44:34;;;;;;;6.93;2.50;;;14.90;99.90;;;;;;5016588;28;20171;-87
2023/03/22 12:47:05;;;;;;;4.55;2.78;;;14.80;99.90;;;;;;5016437;28;20174;-90
2023/03/22 12:49:44;;;;;;;4.63;2.42;;;14.80;99.90;;;;;;5016594;28;20191;-87
2023/03/22 12:52:25;;;;;;;4.15;2.00;;;15.00;99.90;;;;;;5016887;28;20222;-93
2023/03/22 12:54:52;;;;;;;5.18;2.60;;;15.20;99.90;;;;;;5016408;28;20174;-93
2023/03/22 12:57:19;;;;;;;3.42;2.33;;;15.10;99.90;;;;;;5016299;28;20194;-89